N724JS ENTC-LPMA
Flight info
| Callsign | N724JS |
|---|---|
| Flight time | N/A |
| Altitude | 43000 |
| Route | AMIMO DCT EDAPA DCT PEPIN DCT ERNAN/M087F430 DCT OMOKO T16 EKROL/M087F450 T16 NAVIX/N0497F450 DCT KICAS |
| Aircraft | GLF6/M-SBDE2E3FGHIJ4J5M1RWXY/LB1D1 |
Departure
| Time | 2026-05-06 18:26 |
|---|---|
| Airport | Tromsø Airport (ENTC) |
Arrival
| Time | N/A |
|---|---|
| Airport | Cristiano Ronaldo International Airport (LPMA) |
| Time | Latitude | Longitude | Altitude | Speed | Heading |
|---|---|---|---|---|---|
| 2026-05-06 18:05 | 69.67978 | 18.90929 | -4 ft | 0 kts | 283° |
| 2026-05-06 18:21 | 69.67978 | 18.90931 | -4 ft | 1 kts | 283° |
| 2026-05-06 18:21 | 69.67976 | 18.90956 | -4 ft | 1 kts | 283° |
| 2026-05-06 18:22 | 69.67974 | 18.90997 | -4 ft | 2 kts | 261° |
| 2026-05-06 18:22 | 69.67978 | 18.91039 | -3 ft | 2 kts | 240° |
| 2026-05-06 18:22 | 69.67987 | 18.91072 | -2 ft | 2 kts | 220° |
| 2026-05-06 18:22 | 69.67999 | 18.91094 | -2 ft | 1 kts | 200° |
| 2026-05-06 18:23 | 69.68005 | 18.91099 | -2 ft | 1 kts | 195° |
| 2026-05-06 18:23 | 69.68006 | 18.91100 | -2 ft | 0 kts | 195° |
| 2026-05-06 18:24 | 69.68002 | 18.91096 | -2 ft | 5 kts | 194° |
| 2026-05-06 18:24 | 69.67886 | 18.91135 | -1 ft | 21 kts | 184° |
| 2026-05-06 18:24 | 69.67743 | 18.91056 | -4 ft | 21 kts | 192° |
| 2026-05-06 18:24 | 69.67625 | 18.91134 | -6 ft | 10 kts | 111° |
| 2026-05-06 18:25 | 69.67611 | 18.91282 | -3 ft | 5 kts | 103° |
| 2026-05-06 18:25 | 69.67591 | 18.91385 | -1 ft | 7 kts | 144° |
| 2026-05-06 18:25 | 69.67505 | 18.91338 | -7 ft | 19 kts | 203° |
| 2026-05-06 18:25 | 69.67379 | 18.91202 | -12 ft | 12 kts | 179° |
| 2026-05-06 18:26 | 69.67402 | 18.91273 | -10 ft | 12 kts | 7° |
| 2026-05-06 18:26 | 69.67609 | 18.91412 | 0 ft | 71 kts | 14° |
| 2026-05-06 18:26 | 69.68377 | 18.91921 | 76 ft | 142 kts | 13° |
| 2026-05-06 18:26 | 69.69270 | 18.92467 | 926 ft | 132 kts | 13° |
| 2026-05-06 18:27 | 69.70085 | 18.93024 | 1958 ft | 128 kts | 13° |
| 2026-05-06 18:27 | 69.71052 | 18.93705 | 2457 ft | 158 kts | 13° |
| 2026-05-06 18:27 | 69.72191 | 18.94475 | 2926 ft | 195 kts | 13° |
| 2026-05-06 18:27 | 69.73687 | 18.95475 | 3329 ft | 239 kts | 13° |
| 2026-05-06 18:28 | 69.75256 | 18.96530 | 4758 ft | 237 kts | 13° |
| 2026-05-06 18:28 | 69.76852 | 18.97348 | 5953 ft | 242 kts | 356° |
| 2026-05-06 18:28 | 69.78360 | 18.95596 | 7157 ft | 244 kts | 317° |
| 2026-05-06 18:28 | 69.79159 | 18.91483 | 8460 ft | 244 kts | 284° |
| 2026-05-06 18:29 | 69.79513 | 18.86775 | 9683 ft | 246 kts | 283° |
| 2026-05-06 18:29 | 69.79875 | 18.82008 | 10902 ft | 249 kts | 283° |
| 2026-05-06 18:29 | 69.80246 | 18.77169 | 12086 ft | 254 kts | 283° |
| 2026-05-06 18:29 | 69.80626 | 18.72229 | 13268 ft | 258 kts | 281° |
| 2026-05-06 18:30 | 69.80531 | 18.67159 | 14364 ft | 264 kts | 249° |
| 2026-05-06 18:30 | 69.79427 | 18.62760 | 14863 ft | 296 kts | 221° |
| 2026-05-06 18:30 | 69.77522 | 18.59603 | 14938 ft | 338 kts | 209° |
| 2026-05-06 18:30 | 69.75356 | 18.56341 | 15443 ft | 362 kts | 210° |
| 2026-05-06 18:31 | 69.73176 | 18.52933 | 16795 ft | 362 kts | 211° |
| 2026-05-06 18:31 | 69.70965 | 18.49411 | 17819 ft | 372 kts | 211° |
| 2026-05-06 18:31 | 69.68711 | 18.45795 | 18951 ft | 378 kts | 211° |
| 2026-05-06 18:31 | 69.66418 | 18.42112 | 20031 ft | 385 kts | 211° |
| 2026-05-06 18:32 | 69.64083 | 18.38364 | 21081 ft | 392 kts | 211° |
| 2026-05-06 18:32 | 69.61702 | 18.34550 | 22118 ft | 399 kts | 210° |
| 2026-05-06 18:32 | 69.59271 | 18.30665 | 23111 ft | 407 kts | 210° |
| 2026-05-06 18:32 | 69.56799 | 18.26726 | 24084 ft | 414 kts | 210° |
| 2026-05-06 18:33 | 69.54278 | 18.22717 | 25009 ft | 422 kts | 209° |
| 2026-05-06 18:33 | 69.51706 | 18.18642 | 25900 ft | 429 kts | 209° |
| 2026-05-06 18:33 | 69.49094 | 18.14515 | 26797 ft | 434 kts | 209° |
| 2026-05-06 18:33 | 69.46423 | 18.10304 | 27557 ft | 441 kts | 210° |
| 2026-05-06 18:34 | 69.43702 | 18.06027 | 28241 ft | 446 kts | 209° |
| 2026-05-06 18:34 | 69.40952 | 18.01718 | 28912 ft | 452 kts | 209° |
| 2026-05-06 18:34 | 69.38202 | 17.97377 | 29541 ft | 457 kts | 210° |
| 2026-05-06 18:34 | 69.35435 | 17.92827 | 30137 ft | 462 kts | 211° |
| 2026-05-06 18:35 | 69.32661 | 17.88282 | 30708 ft | 467 kts | 211° |
| 2026-05-06 18:35 | 69.29872 | 17.83731 | 31322 ft | 466 kts | 211° |
| 2026-05-06 18:35 | 69.27097 | 17.79215 | 31834 ft | 464 kts | 211° |
| 2026-05-06 18:35 | 69.24322 | 17.74715 | 32264 ft | 464 kts | 210° |
| 2026-05-06 18:36 | 69.21537 | 17.70213 | 32703 ft | 466 kts | 210° |
| 2026-05-06 18:36 | 69.18739 | 17.65704 | 33191 ft | 465 kts | 210° |
| 2026-05-06 18:36 | 69.15953 | 17.61226 | 33758 ft | 465 kts | 210° |